Time,TemperatureF,DewpointF,PressureIn,WindDirection,WindDirectionDegrees,WindSpeedMPH,WindSpeedGustMPH,Humidity,HourlyPrecipIn,Conditions,Clouds,dailyrainin,SoftwareType,DateUTC
2013-07-25 00:00:00,65.2,57.3,29.79,West,280,3.0,3.0,76,0.00,,,0.00,VWS V14.01,2013-07-25 05:00:00,
2013-07-25 00:02:00,63.7,58.3,29.79,WNW,292,3.0,4.0,83,0.01,,,0.00,VWS V14.01,2013-07-25 05:02:00,
2013-07-25 00:07:00,63.2,58.2,29.79,WNW,286,2.0,5.0,84,0.02,,,0.01,VWS V14.01,2013-07-25 05:07:00,
2013-07-25 00:12:00,63.0,58.3,29.80,WSW,240,2.0,5.0,85,0.02,,,0.01,VWS V14.01,2013-07-25 05:12:00,
2013-07-25 00:15:00,65.6,57.7,29.81,West,278,6.0,7.0,76,0.00,,,0.00,VWS V14.01,2013-07-25 05:15:00,
2013-07-25 00:17:00,63.1,58.1,29.80,West,274,2.0,5.0,84,0.02,,,0.01,VWS V14.01,2013-07-25 05:17:00,
2013-07-25 00:22:00,63.4,58.4,29.79,SW,228,1.0,5.0,84,0.02,,,0.01,VWS V14.01,2013-07-25 05:22:00,
2013-07-25 00:27:00,63.4,58.4,29.79,West,272,3.0,5.0,84,0.02,,,0.01,VWS V14.01,2013-07-25 05:27:00,
2013-07-25 00:30:00,65.2,57.7,29.81,WNW,292,5.0,10.0,77,0.00,,,0.00,VWS V14.01,2013-07-25 05:30:00,
2013-07-25 00:32:00,63.4,58.4,29.78,West,272,1.0,2.0,84,0.02,,,0.01,VWS V14.01,2013-07-25 05:32:00,
2013-07-25 00:37:00,63.3,58.0,29.78,West,272,1.0,2.0,83,0.02,,,0.01,VWS V14.01,2013-07-25 05:37:00,
2013-07-25 00:42:00,63.3,58.3,29.78,West,272,2.0,2.0,84,0.02,,,0.01,VWS V14.01,2013-07-25 05:42:00,
2013-07-25 00:45:00,64.5,58.1,29.79,NW,305,0.0,7.0,80,0.00,,,0.00,VWS V14.01,2013-07-25 05:45:00,
2013-07-25 00:47:00,63.4,58.4,29.78,West,272,0.0,0.0,84,0.02,,,0.01,VWS V14.01,2013-07-25 05:47:00,
2013-07-25 00:52:00,63.3,58.6,29.76,West,272,1.0,2.0,85,0.02,,,0.01,VWS V14.01,2013-07-25 05:52:00,
2013-07-25 00:57:00,63.3,58.6,29.76,West,272,1.0,2.0,85,0.02,,,0.01,VWS V14.01,2013-07-25 05:57:00,
2013-07-25 01:00:00,63.9,58.5,29.80,NW,306,2.0,5.0,83,0.01,,,0.01,VWS V14.01,2013-07-25 06:00:00,
2013-07-25 01:02:00,63.2,58.2,29.76,West,272,1.0,2.0,84,0.01,,,0.01,VWS V14.01,2013-07-25 06:02:00,
2013-07-25 01:07:00,63.3,58.3,29.76,West,272,1.0,2.0,84,0.01,,,0.01,VWS V14.01,2013-07-25 06:07:00,
2013-07-25 01:12:00,63.2,58.2,29.76,West,272,0.0,2.0,84,0.01,,,0.01,VWS V14.01,2013-07-25 06:12:00,
2013-07-25 01:15:00,63.0,58.3,29.80,WNW,290,3.0,5.0,85,0.02,,,0.01,VWS V14.01,2013-07-25 06:15:00,
2013-07-25 01:17:00,63.0,58.3,29.76,West,272,1.0,2.0,85,0.00,,,0.01,VWS V14.01,2013-07-25 06:17:00,
2013-07-25 01:22:00,62.8,58.5,29.76,West,272,0.0,2.0,86,0.00,,,0.01,VWS V14.01,2013-07-25 06:22:00,
2013-07-25 01:27:00,62.6,58.6,29.76,West,272,1.0,2.0,87,0.00,,,0.01,VWS V14.01,2013-07-25 06:27:00,
2013-07-25 01:30:00,63.4,58.4,29.78,West,272,0.0,5.0,84,0.02,,,0.01,VWS V14.01,2013-07-25 06:30:00,
2013-07-25 01:32:00,62.3,58.3,29.77,West,272,1.0,2.0,87,0.00,,,0.01,VWS V14.01,2013-07-25 06:32:00,
2013-07-25 01:37:00,62.1,58.4,29.77,West,272,1.0,2.0,88,0.00,,,0.01,VWS V14.01,2013-07-25 06:37:00,
2013-07-25 01:42:00,61.7,57.7,29.77,West,272,1.0,2.0,87,0.00,,,0.01,VWS V14.01,2013-07-25 06:42:00,
2013-07-25 01:45:00,63.4,58.4,29.78,West,272,0.0,2.0,84,0.02,,,0.01,VWS V14.01,2013-07-25 06:45:00,
2013-07-25 01:47:00,61.7,58.0,29.77,South,183,5.0,7.0,88,0.00,,,0.01,VWS V14.01,2013-07-25 06:47:00,
2013-07-25 01:52:00,61.6,57.9,29.77,South,182,5.0,10.0,88,0.00,,,0.01,VWS V14.01,2013-07-25 06:52:00,
2013-07-25 01:57:00,61.6,57.9,29.77,SSW,196,5.0,10.0,88,0.00,,,0.01,VWS V14.01,2013-07-25 06:57:00,
2013-07-25 02:00:00,63.2,58.2,29.77,West,272,1.0,2.0,84,0.02,,,0.01,VWS V14.01,2013-07-25 07:00:00,
2013-07-25 02:02:00,61.6,57.6,29.77,SSW,194,2.0,7.0,87,0.00,,,0.01,VWS V14.01,2013-07-25 07:02:00,
2013-07-25 02:07:00,61.6,57.6,29.77,South,191,3.0,7.0,87,0.00,,,0.01,VWS V14.01,2013-07-25 07:07:00,
2013-07-25 02:12:00,61.5,57.2,29.77,SSW,195,3.0,7.0,86,0.00,,,0.01,VWS V14.01,2013-07-25 07:12:00,
2013-07-25 02:15:00,63.1,58.1,29.76,West,272,1.0,2.0,84,0.01,,,0.01,VWS V14.01,2013-07-25 07:15:00,
2013-07-25 02:17:00,61.5,57.2,29.77,South,188,2.0,6.0,86,0.00,,,0.01,VWS V14.01,2013-07-25 07:17:00,
2013-07-25 02:22:00,61.6,57.0,29.77,SSW,193,4.0,9.0,85,0.00,,,0.01,VWS V14.01,2013-07-25 07:22:00,
2013-07-25 02:27:00,61.9,56.9,29.77,South,183,3.0,9.0,84,0.00,,,0.01,VWS V14.01,2013-07-25 07:27:00,
2013-07-25 02:30:00,62.4,58.4,29.77,West,272,1.0,2.0,87,0.00,,,0.01,VWS V14.01,2013-07-25 07:30:00,
2013-07-25 02:32:00,61.9,56.9,29.77,South,185,1.0,5.0,84,0.00,,,0.01,VWS V14.01,2013-07-25 07:32:00,
2013-07-25 02:37:00,61.8,56.8,29.77,WSW,249,2.0,5.0,84,0.00,,,0.01,VWS V14.01,2013-07-25 07:37:00,
2013-07-25 02:42:00,61.5,56.9,29.78,West,267,1.0,5.0,85,0.00,,,0.01,VWS V14.01,2013-07-25 07:42:00,
2013-07-25 02:45:00,61.6,57.9,29.77,South,176,4.0,4.0,88,0.00,,,0.01,VWS V14.01,2013-07-25 07:45:00,
2013-07-25 02:47:00,61.2,56.6,29.77,SSW,209,1.0,4.0,85,0.00,,,0.01,VWS V14.01,2013-07-25 07:47:00,
2013-07-25 02:52:00,61.0,56.7,29.78,WSW,253,2.0,6.0,86,0.00,,,0.01,VWS V14.01,2013-07-25 07:52:00,
2013-07-25 02:57:00,60.9,56.6,29.77,WSW,240,2.0,7.0,86,0.00,,,0.01,VWS V14.01,2013-07-25 07:57:00,
2013-07-25 03:00:00,61.6,57.9,29.77,South,184,7.0,10.0,88,0.00,,,0.01,VWS V14.01,2013-07-25 08:00:00,
2013-07-25 03:02:00,61.0,56.7,29.77,WNW,290,3.0,5.0,86,0.00,,,0.01,VWS V14.01,2013-07-25 08:02:00,
2013-07-25 03:07:00,60.9,56.6,29.77,WSW,251,2.0,5.0,86,0.00,,,0.01,VWS V14.01,2013-07-25 08:07:00,
2013-07-25 03:12:00,60.7,56.4,29.77,WNW,294,0.0,5.0,86,0.00,,,0.01,VWS V14.01,2013-07-25 08:12:00,
2013-07-25 03:15:00,61.5,57.2,29.77,South,186,4.0,8.0,86,0.00,,,0.01,VWS V14.01,2013-07-25 08:15:00,
2013-07-25 03:17:00,60.3,56.0,29.77,WNW,294,1.0,2.0,86,0.00,,,0.01,VWS V14.01,2013-07-25 08:17:00,
2013-07-25 03:22:00,60.1,56.1,29.77,West,266,2.0,3.0,87,0.00,,,0.01,VWS V14.01,2013-07-25 08:22:00,
2013-07-25 03:27:00,59.9,55.9,29.76,WSW,255,0.0,3.0,87,0.00,,,0.01,VWS V14.01,2013-07-25 08:27:00,
2013-07-25 03:30:00,62.0,57.0,29.77,SSW,201,3.0,9.0,84,0.00,,,0.01,VWS V14.01,2013-07-25 08:30:00,
2013-07-25 03:32:00,60.0,56.3,29.77,West,269,3.0,4.0,88,0.00,,,0.01,VWS V14.01,2013-07-25 08:32:00,
2013-07-25 03:37:00,59.9,55.9,29.76,West,261,2.0,4.0,87,0.00,,,0.01,VWS V14.01,2013-07-25 08:37:00,
2013-07-25 03:42:00,59.9,56.2,29.76,WSW,251,1.0,4.0,88,0.00,,,0.01,VWS V14.01,2013-07-25 08:42:00,
2013-07-25 03:45:00,61.3,56.7,29.77,SW,224,0.0,5.0,85,0.00,,,0.01,VWS V14.01,2013-07-25 08:45:00,
2013-07-25 03:47:00,59.8,56.2,29.76,West,265,3.0,3.0,88,0.00,,,0.01,VWS V14.01,2013-07-25 08:47:00,
2013-07-25 03:52:00,59.6,56.0,29.76,West,268,3.0,4.0,88,0.00,,,0.01,VWS V14.01,2013-07-25 08:52:00,
2013-07-25 03:57:00,59.4,55.8,29.76,WSW,255,1.0,4.0,88,0.00,,,0.01,VWS V14.01,2013-07-25 08:57:00,
2013-07-25 04:00:00,61.0,56.7,29.77,WSW,238,3.0,7.0,86,0.00,,,0.01,VWS V14.01,2013-07-25 09:00:00,
2013-07-25 04:02:00,59.4,56.1,29.76,West,261,2.0,3.0,89,0.00,,,0.01,VWS V14.01,2013-07-25 09:02:00,
2013-07-25 04:07:00,59.4,56.1,29.76,West,263,3.0,4.0,89,0.00,,,0.01,VWS V14.01,2013-07-25 09:07:00,
2013-07-25 04:12:00,59.4,56.1,29.76,West,267,2.0,6.0,89,0.00,,,0.01,VWS V14.01,2013-07-25 09:12:00,
2013-07-25 04:15:00,60.5,56.2,29.77,WNW,294,1.0,5.0,86,0.00,,,0.01,VWS V14.01,2013-07-25 09:15:00,
2013-07-25 04:17:00,59.4,56.1,29.77,SW,224,3.0,5.0,89,0.00,,,0.01,VWS V14.01,2013-07-25 09:17:00,
2013-07-25 04:22:00,59.4,56.1,29.77,West,275,2.0,5.0,89,0.00,,,0.01,VWS V14.01,2013-07-25 09:22:00,
2013-07-25 04:27:00,59.3,56.0,29.77,West,276,3.0,5.0,89,0.00,,,0.01,VWS V14.01,2013-07-25 09:27:00,
2013-07-25 04:30:00,59.9,55.9,29.77,WNW,284,2.0,4.0,87,0.00,,,0.01,VWS V14.01,2013-07-25 09:30:00,
2013-07-25 04:32:00,59.1,55.8,29.77,West,280,3.0,5.0,89,0.00,,,0.01,VWS V14.01,2013-07-25 09:32:00,
2013-07-25 04:37:00,58.9,55.6,29.78,WNW,285,4.0,5.0,89,0.00,,,0.01,VWS V14.01,2013-07-25 09:37:00,
2013-07-25 04:42:00,58.7,55.7,29.78,West,281,3.0,5.0,90,0.00,,,0.01,VWS V14.01,2013-07-25 09:42:00,
2013-07-25 04:45:00,59.8,56.2,29.76,WSW,251,1.0,4.0,88,0.00,,,0.01,VWS V14.01,2013-07-25 09:45:00,
2013-07-25 04:47:00,58.5,55.5,29.78,West,280,3.0,4.0,90,0.00,,,0.01,VWS V14.01,2013-07-25 09:47:00,
2013-07-25 04:52:00,58.5,55.8,29.78,West,276,2.0,4.0,91,0.00,,,0.01,VWS V14.01,2013-07-25 09:52:00,
2013-07-25 04:57:00,58.5,55.8,29.78,West,269,1.0,4.0,91,0.00,,,0.01,VWS V14.01,2013-07-25 09:57:00,
2013-07-25 05:00:00,59.4,56.1,29.76,West,265,2.0,4.0,89,0.00,,,0.01,VWS V14.01,2013-07-25 10:00:00,
2013-07-25 05:02:00,58.4,55.7,29.78,West,275,2.0,4.0,91,0.00,,,0.01,VWS V14.01,2013-07-25 10:02:00,
2013-07-25 05:07:00,58.6,55.9,29.78,WSW,258,4.0,5.0,91,0.00,,,0.01,VWS V14.01,2013-07-25 10:07:00,
2013-07-25 05:12:00,58.8,56.1,29.78,WSW,238,5.0,6.0,91,0.00,,,0.01,VWS V14.01,2013-07-25 10:12:00,
2013-07-25 05:15:00,59.4,56.1,29.76,West,272,4.0,6.0,89,0.00,,,0.01,VWS V14.01,2013-07-25 10:15:00,
2013-07-25 05:17:00,59.1,56.1,29.78,WSW,251,5.0,6.0,90,0.00,,,0.01,VWS V14.01,2013-07-25 10:17:00,
2013-07-25 05:22:00,59.2,56.2,29.78,West,278,2.0,6.0,90,0.00,,,0.01,VWS V14.01,2013-07-25 10:22:00,
2013-07-25 05:27:00,59.1,56.1,29.78,West,279,3.0,6.0,90,0.00,,,0.01,VWS V14.01,2013-07-25 10:27:00,
2013-07-25 05:30:00,59.2,55.9,29.77,West,267,3.0,5.0,89,0.00,,,0.01,VWS V14.01,2013-07-25 10:30:00,
2013-07-25 05:32:00,59.2,56.2,29.78,West,272,3.0,4.0,90,0.00,,,0.01,VWS V14.01,2013-07-25 10:32:00,
2013-07-25 05:37:00,59.1,56.1,29.78,West,261,1.0,4.0,90,0.00,,,0.01,VWS V14.01,2013-07-25 10:37:00,
2013-07-25 05:42:00,59.0,56.0,29.78,West,278,4.0,4.0,90,0.00,,,0.01,VWS V14.01,2013-07-25 10:42:00,
2013-07-25 05:45:00,58.5,55.5,29.78,West,277,2.0,5.0,90,0.00,,,0.01,VWS V14.01,2013-07-25 10:45:00,
2013-07-25 05:47:00,58.9,55.9,29.79,WSW,253,2.0,4.0,90,0.00,,,0.01,VWS V14.01,2013-07-25 10:47:00,
2013-07-25 05:52:00,58.7,55.7,29.79,West,271,3.0,5.0,90,0.00,,,0.01,VWS V14.01,2013-07-25 10:52:00,
2013-07-25 05:57:00,58.6,55.6,29.79,WNW,283,3.0,5.0,90,0.00,,,0.01,VWS V14.01,2013-07-25 10:57:00,
2013-07-25 06:00:00,58.4,55.7,29.78,West,269,2.0,4.0,91,0.00,,,0.01,VWS V14.01,2013-07-25 11:00:00,
2013-07-25 06:02:00,58.5,55.8,29.79,West,281,3.0,4.0,91,0.00,,,0.01,VWS V14.01,2013-07-25 11:02:00,
2013-07-25 06:07:00,58.5,55.8,29.80,WNW,296,2.0,5.0,91,0.00,,,0.01,VWS V14.01,2013-07-25 11:07:00,
2013-07-25 06:12:00,58.5,55.8,29.80,WNW,284,2.0,6.0,91,0.00,,,0.01,VWS V14.01,2013-07-25 11:12:00,
2013-07-25 06:15:00,59.0,56.3,29.78,West,259,3.0,6.0,91,0.00,,,0.01,VWS V14.01,2013-07-25 11:15:00,
2013-07-25 06:17:00,58.5,55.8,29.80,West,261,4.0,4.0,91,0.00,,,0.01,VWS V14.01,2013-07-25 11:17:00,
2013-07-25 06:22:00,58.5,55.8,29.80,West,265,2.0,6.0,91,0.00,,,0.01,VWS V14.01,2013-07-25 11:22:00,
2013-07-25 06:27:00,58.5,55.8,29.80,WSW,255,5.0,6.0,91,0.00,,,0.01,VWS V14.01,2013-07-25 11:27:00,
2013-07-25 06:30:00,59.2,56.2,29.79,West,264,3.0,6.0,90,0.00,,,0.01,VWS V14.01,2013-07-25 11:30:00,
2013-07-25 06:32:00,58.5,55.8,29.80,West,273,3.0,5.0,91,0.00,,,0.01,VWS V14.01,2013-07-25 11:32:00,
2013-07-25 06:37:00,58.5,55.8,29.80,West,273,5.0,5.0,91,0.00,,,0.01,VWS V14.01,2013-07-25 11:37:00,
2013-07-25 06:42:00,58.6,55.9,29.80,West,262,4.0,5.0,91,0.00,,,0.01,VWS V14.01,2013-07-25 11:42:00,
2013-07-25 06:45:00,58.9,55.9,29.79,WSW,258,2.0,4.0,90,0.00,,,0.01,VWS V14.01,2013-07-25 11:45:00,
2013-07-25 06:47:00,58.7,56.0,29.81,WNW,290,3.0,6.0,91,0.00,,,0.01,VWS V14.01,2013-07-25 11:47:00,
2013-07-25 06:52:00,58.8,56.1,29.80,WSW,248,3.0,6.0,91,0.00,,,0.01,VWS V14.01,2013-07-25 11:52:00,
2013-07-25 06:57:00,58.9,56.2,29.81,WNW,282,4.0,6.0,91,0.00,,,0.01,VWS V14.01,2013-07-25 11:57:00,
2013-07-25 07:00:00,58.5,55.5,29.79,WSW,254,4.0,5.0,90,0.00,,,0.01,VWS V14.01,2013-07-25 12:00:00,
2013-07-25 07:02:00,59.0,56.9,29.80,WNW,296,4.0,8.0,93,0.00,,,0.01,VWS V14.01,2013-07-25 12:02:00,
2013-07-25 07:07:00,59.1,56.4,29.80,WNW,283,2.0,8.0,91,0.00,,,0.01,VWS V14.01,2013-07-25 12:07:00,
2013-07-25 07:12:00,59.1,56.1,29.80,West,281,4.0,8.0,90,0.00,,,0.01,VWS V14.01,2013-07-25 12:12:00,
2013-07-25 07:15:00,58.5,55.8,29.80,West,280,2.0,6.0,91,0.00,,,0.01,VWS V14.01,2013-07-25 12:15:00,
2013-07-25 07:17:00,59.2,56.5,29.81,West,273,6.0,7.0,91,0.00,,,0.01,VWS V14.01,2013-07-25 12:17:00,
2013-07-25 07:22:00,59.3,56.6,29.81,West,280,4.0,7.0,91,0.00,,,0.01,VWS V14.01,2013-07-25 12:22:00,
2013-07-25 07:27:00,59.5,56.5,29.81,WSW,251,5.0,7.0,90,0.00,,,0.01,VWS V14.01,2013-07-25 12:27:00,
2013-07-25 07:30:00,58.5,55.8,29.80,WSW,253,3.0,6.0,91,0.00,,,0.01,VWS V14.01,2013-07-25 12:30:00,
2013-07-25 07:32:00,59.5,56.5,29.81,WNW,293,7.0,7.0,90,0.00,,,0.01,VWS V14.01,2013-07-25 12:32:00,
2013-07-25 07:37:00,59.6,56.6,29.81,West,271,6.0,8.0,90,0.00,,,0.01,VWS V14.01,2013-07-25 12:37:00,
2013-07-25 07:42:00,59.6,56.6,29.81,WNW,289,6.0,8.0,90,0.00,,,0.01,VWS V14.01,2013-07-25 12:42:00,
2013-07-25 07:45:00,58.7,56.0,29.80,West,267,2.0,7.0,91,0.00,,,0.01,VWS V14.01,2013-07-25 12:45:00,
2013-07-25 07:47:00,59.7,56.7,29.82,West,280,4.0,7.0,90,0.00,,,0.01,VWS V14.01,2013-07-25 12:47:00,
2013-07-25 07:52:00,59.8,56.8,29.81,West,260,4.0,7.0,90,0.00,,,0.01,VWS V14.01,2013-07-25 12:52:00,
2013-07-25 07:57:00,60.0,57.0,29.82,WNW,282,6.0,7.0,90,0.00,,,0.01,VWS V14.01,2013-07-25 12:57:00,
2013-07-25 08:00:00,59.0,56.3,29.80,West,268,6.0,6.0,91,0.00,,,0.01,VWS V14.01,2013-07-25 13:00:00,
2013-07-25 08:02:00,60.2,57.2,29.82,WNW,289,4.0,6.0,90,0.00,,,0.01,VWS V14.01,2013-07-25 13:02:00,
2013-07-25 08:07:00,60.4,57.7,29.82,WNW,290,4.0,7.0,91,0.00,,,0.01,VWS V14.01,2013-07-25 13:07:00,
2013-07-25 08:12:00,60.5,57.8,29.82,West,269,5.0,8.0,91,0.00,,,0.01,VWS V14.01,2013-07-25 13:12:00,
2013-07-25 08:15:00,59.2,56.5,29.81,West,265,3.0,8.0,91,0.00,,,0.01,VWS V14.01,2013-07-25 13:15:00,
2013-07-25 08:17:00,60.7,57.7,29.82,WNW,290,6.0,7.0,90,0.00,,,0.01,VWS V14.01,2013-07-25 13:17:00,
2013-07-25 08:22:00,61.0,58.0,29.83,WNW,292,8.0,10.0,90,0.00,,,0.01,VWS V14.01,2013-07-25 13:22:00,
2013-07-25 08:27:00,61.1,58.4,29.83,West,275,6.0,10.0,91,0.00,,,0.01,VWS V14.01,2013-07-25 13:27:00,
2013-07-25 08:30:00,59.5,56.5,29.81,WNW,286,5.0,8.0,90,0.00,,,0.01,VWS V14.01,2013-07-25 13:30:00,
2013-07-25 08:32:00,61.4,58.7,29.83,WNW,296,6.0,9.0,91,0.00,,,0.01,VWS V14.01,2013-07-25 13:32:00,
2013-07-25 08:37:00,61.7,58.7,29.83,WNW,292,13.0,13.0,90,0.00,,,0.01,VWS V14.01,2013-07-25 13:37:00,
2013-07-25 08:42:00,61.9,58.5,29.83,West,269,8.0,13.0,89,0.00,,,0.01,VWS V14.01,2013-07-25 13:42:00,
2013-07-25 08:45:00,59.7,56.7,29.82,WNW,284,7.0,10.0,90,0.00,,,0.01,VWS V14.01,2013-07-25 13:45:00,
2013-07-25 08:47:00,62.1,58.4,29.83,West,262,9.0,15.0,88,0.00,,,0.01,VWS V14.01,2013-07-25 13:47:00,
2013-07-25 08:52:00,62.3,58.6,29.83,West,269,6.0,15.0,88,0.00,,,0.01,VWS V14.01,2013-07-25 13:52:00,
2013-07-25 08:57:00,62.3,58.3,29.83,West,270,7.0,15.0,87,0.00,,,0.01,VWS V14.01,2013-07-25 13:57:00,
2013-07-25 09:00:00,60.1,57.1,29.82,West,265,3.0,7.0,90,0.00,,,0.01,VWS V14.01,2013-07-25 14:00:00,
2013-07-25 09:02:00,62.5,58.8,29.83,West,276,9.0,12.0,88,0.00,,,0.01,VWS V14.01,2013-07-25 14:02:00,
2013-07-25 09:07:00,63.1,58.8,29.83,NW,321,13.0,15.0,86,0.00,,,0.01,VWS V14.01,2013-07-25 14:07:00,
2013-07-25 09:12:00,63.2,58.5,29.83,WNW,287,9.0,15.0,85,0.00,,,0.01,VWS V14.01,2013-07-25 14:12:00,
2013-07-25 09:15:00,60.7,58.0,29.82,WNW,290,6.0,8.0,91,0.00,,,0.01,VWS V14.01,2013-07-25 14:15:00,
2013-07-25 09:17:00,63.3,58.6,29.83,West,279,14.0,19.0,85,0.00,,,0.01,VWS V14.01,2013-07-25 14:17:00,
2013-07-25 09:22:00,63.4,58.7,29.83,West,275,14.0,19.0,85,0.00,,,0.01,VWS V14.01,2013-07-25 14:22:00,
2013-07-25 09:27:00,63.2,57.9,29.84,West,280,8.0,21.0,83,0.00,,,0.01,VWS V14.01,2013-07-25 14:27:00,
2013-07-25 09:30:00,61.3,58.6,29.83,West,278,7.0,10.0,91,0.00,,,0.01,VWS V14.01,2013-07-25 14:30:00,
2013-07-25 09:32:00,63.0,58.0,29.84,West,269,7.0,13.0,84,0.00,,,0.01,VWS V14.01,2013-07-25 14:32:00,
2013-07-25 09:37:00,62.7,57.7,29.84,NNW,335,11.0,18.0,84,0.00,,,0.01,VWS V14.01,2013-07-25 14:37:00,
2013-07-25 09:42:00,62.5,57.8,29.84,NW,318,5.0,18.0,85,0.00,,,0.01,VWS V14.01,2013-07-25 14:42:00,
2013-07-25 09:45:00,62.1,58.4,29.83,WNW,284,7.0,13.0,88,0.00,,,0.01,VWS V14.01,2013-07-25 14:45:00,
2013-07-25 09:47:00,62.9,58.2,29.84,WNW,287,5.0,17.0,85,0.00,,,0.01,VWS V14.01,2013-07-25 14:47:00,
2013-07-25 09:52:00,63.3,58.0,29.85,WNW,295,13.0,18.0,83,0.00,,,0.01,VWS V14.01,2013-07-25 14:52:00,
2013-07-25 09:57:00,63.5,57.8,29.85,West,267,13.0,18.0,82,0.00,,,0.01,VWS V14.01,2013-07-25 14:57:00,
2013-07-25 10:00:00,62.4,58.7,29.83,WNW,294,10.0,15.0,88,0.00,,,0.01,VWS V14.01,2013-07-25 15:00:00,
2013-07-25 10:02:00,63.4,57.4,29.85,West,278,10.0,15.0,81,0.00,,,0.01,VWS V14.01,2013-07-25 15:02:00,
2013-07-25 10:07:00,63.2,57.5,29.85,NNW,333,12.0,17.0,82,0.00,,,0.01,VWS V14.01,2013-07-25 15:07:00,
2013-07-25 10:12:00,62.3,56.6,29.85,NW,309,10.0,19.0,82,0.00,,,0.01,VWS V14.01,2013-07-25 15:12:00,
2013-07-25 10:15:00,63.3,59.0,29.83,WSW,248,4.0,15.0,86,0.00,,,0.01,VWS V14.01,2013-07-25 15:15:00,
2013-07-25 10:17:00,63.1,57.8,29.85,WNW,282,9.0,15.0,83,0.00,,,0.01,VWS V14.01,2013-07-25 15:17:00,
2013-07-25 10:22:00,63.8,57.8,29.85,NNW,341,6.0,15.0,81,0.00,,,0.01,VWS V14.01,2013-07-25 15:22:00,
2013-07-25 10:27:00,64.0,58.0,29.85,WNW,294,10.0,15.0,81,0.00,,,0.01,VWS V14.01,2013-07-25 15:27:00,
2013-07-25 10:30:00,63.0,57.7,29.84,WNW,283,5.0,21.0,83,0.00,,,0.01,VWS V14.01,2013-07-25 15:30:00,
2013-07-25 10:32:00,62.3,55.6,29.85,WNW,300,12.0,18.0,79,0.00,,,0.01,VWS V14.01,2013-07-25 15:32:00,
2013-07-25 10:37:00,62.6,56.2,29.85,WNW,286,7.0,18.0,80,0.00,,,0.01,VWS V14.01,2013-07-25 15:37:00,
2013-07-25 10:42:00,63.9,57.5,29.85,NW,311,14.0,18.0,80,0.00,,,0.01,VWS V14.01,2013-07-25 15:42:00,
2013-07-25 10:45:00,62.8,58.1,29.84,West,278,14.0,18.0,85,0.00,,,0.01,VWS V14.01,2013-07-25 15:45:00,
2013-07-25 10:47:00,64.4,56.9,29.85,West,264,8.0,14.0,77,0.00,,,0.01,VWS V14.01,2013-07-25 15:47:00,
2013-07-25 10:52:00,63.1,56.0,29.85,WNW,296,17.0,18.0,78,0.00,,,0.01,VWS V14.01,2013-07-25 15:52:00,
2013-07-25 10:57:00,62.6,55.2,29.85,West,259,10.0,20.0,77,0.00,,,0.01,VWS V14.01,2013-07-25 15:57:00,
2013-07-25 11:00:00,63.6,57.9,29.85,WNW,297,11.0,18.0,82,0.00,,,0.01,VWS V14.01,2013-07-25 16:00:00,
2013-07-25 11:02:00,63.5,56.4,29.85,NNW,327,6.0,16.0,78,0.00,,,0.01,VWS V14.01,2013-07-25 16:02:00,
2013-07-25 11:07:00,64.0,55.8,29.85,West,273,8.0,16.0,75,0.00,,,0.01,VWS V14.01,2013-07-25 16:07:00,
2013-07-25 11:12:00,63.1,55.0,29.85,West,278,11.0,21.0,75,0.00,,,0.01,VWS V14.01,2013-07-25 16:12:00,
2013-07-25 11:15:00,62.6,57.3,29.85,WNW,289,7.0,19.0,83,0.00,,,0.01,VWS V14.01,2013-07-25 16:15:00,
2013-07-25 11:17:00,63.9,56.1,29.85,WNW,302,7.0,13.0,76,0.00,,,0.01,VWS V14.01,2013-07-25 16:17:00,
2013-07-25 11:22:00,64.7,55.7,29.85,NW,326,6.0,21.0,73,0.00,,,0.01,VWS V14.01,2013-07-25 16:22:00,
2013-07-25 11:27:00,64.6,55.3,29.85,West,280,5.0,21.0,72,0.00,,,0.01,VWS V14.01,2013-07-25 16:27:00,
2013-07-25 11:30:00,62.9,55.5,29.85,WNW,298,12.0,23.0,77,0.00,,,0.01,VWS V14.01,2013-07-25 16:30:00,
2013-07-25 11:32:00,63.6,54.7,29.86,WNW,289,11.0,17.0,73,0.00,,,0.01,VWS V14.01,2013-07-25 16:32:00,
2013-07-25 11:37:00,63.0,54.5,29.87,WNW,296,20.0,20.0,74,0.00,,,0.01,VWS V14.01,2013-07-25 16:37:00,
2013-07-25 11:42:00,64.3,56.5,29.86,WNW,286,10.0,20.0,76,0.00,,,0.01,VWS V14.01,2013-07-25 16:42:00,
2013-07-25 11:45:00,64.2,56.7,29.85,WNW,299,14.0,18.0,77,0.00,,,0.01,VWS V14.01,2013-07-25 16:45:00,
2013-07-25 11:47:00,64.7,55.7,29.85,WNW,283,4.0,14.0,73,0.00,,,0.01,VWS V14.01,2013-07-25 16:47:00,
2013-07-25 11:52:00,64.1,54.4,29.86,WNW,300,12.0,21.0,71,0.00,,,0.01,VWS V14.01,2013-07-25 16:52:00,
2013-07-25 11:57:00,63.7,54.4,29.86,WNW,289,17.0,22.0,72,0.00,,,0.01,VWS V14.01,2013-07-25 16:57:00,
2013-07-25 12:00:00,62.8,55.0,29.85,WNW,289,12.0,20.0,76,0.00,,,0.01,VWS V14.01,2013-07-25 17:00:00,
2013-07-25 12:02:00,64.6,54.9,29.86,NW,305,14.0,18.0,71,0.00,,,0.01,VWS V14.01,2013-07-25 17:02:00,
2013-07-25 12:07:00,64.3,53.0,29.87,WNW,282,9.0,21.0,67,0.00,,,0.01,VWS V14.01,2013-07-25 17:07:00,
2013-07-25 12:12:00,65.0,54.1,29.86,WNW,293,11.0,21.0,68,0.00,,,0.01,VWS V14.01,2013-07-25 17:12:00,
2013-07-25 12:15:00,63.4,56.0,29.85,WNW,295,11.0,21.0,77,0.00,,,0.01,VWS V14.01,2013-07-25 17:15:00,
2013-07-25 12:17:00,64.0,53.1,29.87,NW,307,13.0,18.0,68,0.00,,,0.01,VWS V14.01,2013-07-25 17:17:00,
2013-07-25 12:22:00,64.3,53.0,29.87,NW,310,12.0,19.0,67,0.00,,,0.01,VWS V14.01,2013-07-25 17:22:00,
2013-07-25 12:27:00,64.4,52.7,29.87,West,280,10.0,19.0,66,0.00,,,0.01,VWS V14.01,2013-07-25 17:27:00,
2013-07-25 12:30:00,64.1,54.8,29.86,NW,323,13.0,21.0,72,0.00,,,0.01,VWS V14.01,2013-07-25 17:30:00,
2013-07-25 12:32:00,64.6,52.0,29.87,WNW,294,11.0,17.0,64,0.00,,,0.01,VWS V14.01,2013-07-25 17:32:00,
2013-07-25 12:37:00,63.6,51.9,29.87,WNW,288,15.0,20.0,66,0.00,,,0.01,VWS V14.01,2013-07-25 17:37:00,
2013-07-25 12:42:00,64.5,51.9,29.87,WNW,292,7.0,20.0,64,0.00,,,0.01,VWS V14.01,2013-07-25 17:42:00,
2013-07-25 12:45:00,64.7,56.1,29.86,NW,313,5.0,20.0,74,0.00,,,0.01,VWS V14.01,2013-07-25 17:45:00,
2013-07-25 12:47:00,64.8,52.7,29.86,WNW,282,14.0,22.0,65,0.00,,,0.01,VWS V14.01,2013-07-25 17:47:00,
2013-07-25 12:52:00,64.5,52.8,29.86,WNW,293,15.0,22.0,66,0.00,,,0.01,VWS V14.01,2013-07-25 17:52:00,
2013-07-25 12:57:00,64.5,52.4,29.87,WNW,294,12.0,22.0,65,0.00,,,0.01,VWS V14.01,2013-07-25 17:57:00,
2013-07-25 13:00:00,64.2,54.5,29.86,NNW,327,13.0,22.0,71,0.00,,,0.01,VWS V14.01,2013-07-25 18:00:00,
2013-07-25 13:02:00,64.7,52.5,29.86,WNW,290,18.0,22.0,65,0.00,,,0.01,VWS V14.01,2013-07-25 18:02:00,
2013-07-25 13:07:00,65.6,52.1,29.86,West,279,7.0,23.0,62,0.00,,,0.01,VWS V14.01,2013-07-25 18:07:00,
2013-07-25 13:12:00,66.0,52.5,29.86,WNW,286,15.0,24.0,62,0.00,,,0.01,VWS V14.01,2013-07-25 18:12:00,
2013-07-25 13:15:00,64.4,52.7,29.87,WNW,282,13.0,21.0,66,0.00,,,0.01,VWS V14.01,2013-07-25 18:15:00,
2013-07-25 13:17:00,65.5,52.9,29.86,West,280,9.0,19.0,64,0.00,,,0.01,VWS V14.01,2013-07-25 18:17:00,
2013-07-25 13:22:00,64.9,50.6,29.86,West,275,17.0,21.0,60,0.00,,,0.01,VWS V14.01,2013-07-25 18:22:00,
2013-07-25 13:27:00,64.6,51.2,29.86,NNW,327,16.0,22.0,62,0.00,,,0.01,VWS V14.01,2013-07-25 18:27:00,
2013-07-25 13:30:00,64.9,53.2,29.86,NW,309,10.0,19.0,66,0.00,,,0.01,VWS V14.01,2013-07-25 18:30:00,
2013-07-25 13:32:00,65.6,52.1,29.86,WNW,292,27.0,27.0,62,0.00,,,0.01,VWS V14.01,2013-07-25 18:32:00,
2013-07-25 13:37:00,65.2,54.3,29.86,NW,315,6.0,27.0,68,0.00,,,0.01,VWS V14.01,2013-07-25 18:37:00,
2013-07-25 13:42:00,65.5,51.6,29.86,West,276,13.0,27.0,61,0.00,,,0.01,VWS V14.01,2013-07-25 18:42:00,
2013-07-25 13:45:00,64.5,52.4,29.86,West,277,13.0,20.0,65,0.00,,,0.01,VWS V14.01,2013-07-25 18:45:00,
2013-07-25 13:47:00,65.2,51.3,29.86,West,280,7.0,21.0,61,0.00,,,0.01,VWS V14.01,2013-07-25 18:47:00,
2013-07-25 13:52:00,64.4,51.4,29.86,WNW,302,13.0,21.0,63,0.00,,,0.01,VWS V14.01,2013-07-25 18:52:00,
2013-07-25 13:57:00,64.2,51.7,29.87,WNW,282,17.0,21.0,64,0.00,,,0.01,VWS V14.01,2013-07-25 18:57:00,
2013-07-25 14:00:00,64.3,52.6,29.86,West,269,10.0,24.0,66,0.00,,,0.01,VWS V14.01,2013-07-25 19:00:00,
2013-07-25 14:02:00,65.0,53.2,29.87,NW,308,8.0,14.0,66,0.00,,,0.01,VWS V14.01,2013-07-25 19:02:00,
2013-07-25 14:07:00,65.4,51.5,29.86,NW,306,10.0,20.0,61,0.00,,,0.01,VWS V14.01,2013-07-25 19:07:00,
2013-07-25 14:12:00,65.4,51.9,29.86,West,278,16.0,20.0,62,0.00,,,0.01,VWS V14.01,2013-07-25 19:12:00,
2013-07-25 14:15:00,65.5,52.9,29.86,WNW,301,7.0,24.0,64,0.00,,,0.01,VWS V14.01,2013-07-25 19:15:00,
2013-07-25 14:17:00,65.4,52.4,29.86,WNW,296,6.0,16.0,63,0.00,,,0.01,VWS V14.01,2013-07-25 19:17:00,
2013-07-25 14:22:00,65.2,53.4,29.87,NW,304,11.0,17.0,66,0.00,,,0.01,VWS V14.01,2013-07-25 19:22:00,
2013-07-25 14:27:00,64.6,52.9,29.87,WNW,301,10.0,24.0,66,0.00,,,0.01,VWS V14.01,2013-07-25 19:27:00,
2013-07-25 14:30:00,65.6,54.2,29.86,West,261,12.0,22.0,67,0.00,,,0.01,VWS V14.01,2013-07-25 19:30:00,
2013-07-25 14:32:00,66.0,53.8,29.87,WNW,287,9.0,18.0,65,0.00,,,0.01,VWS V14.01,2013-07-25 19:32:00,
2013-07-25 14:37:00,65.2,52.6,29.87,WNW,290,16.0,19.0,64,0.00,,,0.01,VWS V14.01,2013-07-25 19:37:00,
2013-07-25 14:42:00,65.8,52.7,29.87,West,280,15.0,22.0,63,0.00,,,0.01,VWS V14.01,2013-07-25 19:42:00,
2013-07-25 14:45:00,65.4,51.9,29.86,WNW,295,14.0,27.0,62,0.00,,,0.01,VWS V14.01,2013-07-25 19:45:00,
2013-07-25 14:47:00,65.3,52.7,29.88,NW,310,20.0,21.0,64,0.00,,,0.01,VWS V14.01,2013-07-25 19:47:00,
2013-07-25 14:52:00,64.5,51.5,29.87,WNW,300,11.0,22.0,63,0.00,,,0.01,VWS V14.01,2013-07-25 19:52:00,
2013-07-25 14:57:00,65.5,52.0,29.87,WNW,297,6.0,22.0,62,0.00,,,0.01,VWS V14.01,2013-07-25 19:57:00,
2013-07-25 15:00:00,64.5,52.4,29.86,WNW,286,14.0,21.0,65,0.00,,,0.01,VWS V14.01,2013-07-25 20:00:00,
2013-07-25 15:02:00,66.2,52.7,29.87,WNW,288,8.0,21.0,62,0.00,,,0.01,VWS V14.01,2013-07-25 20:02:00,
2013-07-25 15:07:00,66.2,52.2,29.87,WNW,292,14.0,23.0,61,0.00,,,0.01,VWS V14.01,2013-07-25 20:07:00,
2013-07-25 15:12:00,65.4,52.8,29.87,WNW,299,7.0,25.0,64,0.00,,,0.01,VWS V14.01,2013-07-25 20:12:00,
2013-07-25 15:15:00,65.7,52.7,29.86,WNW,285,8.0,20.0,63,0.00,,,0.01,VWS V14.01,2013-07-25 20:15:00,
2013-07-25 15:17:00,65.9,52.0,29.88,WNW,292,13.0,21.0,61,0.00,,,0.01,VWS V14.01,2013-07-25 20:17:00,
2013-07-25 15:22:00,66.3,52.8,29.88,North,354,7.0,22.0,62,0.00,,,0.01,VWS V14.01,2013-07-25 20:22:00,
2013-07-25 15:27:00,66.5,51.6,29.88,WNW,289,15.0,22.0,59,0.00,,,0.01,VWS V14.01,2013-07-25 20:27:00,
2013-07-25 15:30:00,65.4,53.6,29.87,West,278,14.0,24.0,66,0.00,,,0.01,VWS V14.01,2013-07-25 20:30:00,
2013-07-25 15:32:00,65.1,50.8,29.89,WNW,293,8.0,25.0,60,0.00,,,0.01,VWS V14.01,2013-07-25 20:32:00,
2013-07-25 15:37:00,64.8,51.4,29.88,NW,323,17.0,25.0,62,0.00,,,0.01,VWS V14.01,2013-07-25 20:37:00,
2013-07-25 15:42:00,65.8,51.9,29.88,North,11,16.0,25.0,61,0.00,,,0.01,VWS V14.01,2013-07-25 20:42:00,
2013-07-25 15:45:00,65.7,52.2,29.87,NW,325,18.0,22.0,62,0.00,,,0.01,VWS V14.01,2013-07-25 20:45:00,
2013-07-25 15:47:00,65.4,52.4,29.88,NNW,338,13.0,19.0,63,0.00,,,0.01,VWS V14.01,2013-07-25 20:47:00,
2013-07-25 15:52:00,64.7,52.1,29.88,NNW,334,11.0,29.0,64,0.00,,,0.01,VWS V14.01,2013-07-25 20:52:00,
2013-07-25 16:00:00,65.5,52.0,29.88,NW,308,12.0,16.0,62,0.00,,,0.01,VWS V14.01,2013-07-25 21:00:00,
2013-07-25 16:05:00,64.8,50.5,29.89,NW,315,10.0,26.0,60,0.00,,,0.01,VWS V14.01,2013-07-25 21:05:00,
2013-07-25 16:10:00,64.0,51.0,29.89,WNW,292,12.0,26.0,63,0.00,,,0.01,VWS V14.01,2013-07-25 21:10:00,
2013-07-25 16:15:00,65.0,50.7,29.89,NW,314,15.0,18.0,60,0.00,,,0.01,VWS V14.01,2013-07-25 21:15:00,
2013-07-25 16:20:00,64.6,51.2,29.89,WNW,290,17.0,20.0,62,0.00,,,0.01,VWS V14.01,2013-07-25 21:20:00,
2013-07-25 16:25:00,64.5,51.1,29.90,WNW,302,12.0,20.0,62,0.00,,,0.01,VWS V14.01,2013-07-25 21:25:00,
2013-07-25 16:30:00,64.4,51.4,29.90,West,271,16.0,17.0,63,0.00,,,0.01,VWS V14.01,2013-07-25 21:30:00,
2013-07-25 16:35:00,64.2,52.5,29.90,NW,307,17.0,18.0,66,0.00,,,0.01,VWS V14.01,2013-07-25 21:35:00,
2013-07-25 16:40:00,63.5,51.8,29.90,NW,321,4.0,19.0,66,0.00,,,0.01,VWS V14.01,2013-07-25 21:40:00,
2013-07-25 16:45:00,63.3,50.8,29.90,NNW,328,7.0,10.0,64,0.00,,,0.01,VWS V14.01,2013-07-25 21:45:00,
2013-07-25 16:50:00,63.4,51.3,29.90,WNW,286,14.0,18.0,65,0.00,,,0.01,VWS V14.01,2013-07-25 21:50:00,
2013-07-25 16:55:00,63.4,51.7,29.91,WNW,301,22.0,28.0,66,0.00,,,0.01,VWS V14.01,2013-07-25 21:55:00,
2013-07-25 17:00:00,63.3,51.6,29.91,NW,313,14.0,17.0,66,0.00,,,0.01,VWS V14.01,2013-07-25 22:00:00,
2013-07-25 17:05:00,63.2,51.5,29.90,NW,307,12.0,19.0,66,0.00,,,0.01,VWS V14.01,2013-07-25 22:05:00,
2013-07-25 17:10:00,63.2,51.1,29.91,WNW,293,14.0,21.0,65,0.00,,,0.01,VWS V14.01,2013-07-25 22:10:00,
2013-07-25 17:15:00,62.9,51.3,29.91,WNW,288,19.0,19.0,66,0.00,,,0.01,VWS V14.01,2013-07-25 22:15:00,
2013-07-25 17:20:00,63.2,52.0,29.91,West,280,16.0,20.0,67,0.00,,,0.01,VWS V14.01,2013-07-25 22:20:00,
2013-07-25 17:25:00,64.4,51.8,29.90,West,276,12.0,20.0,64,0.00,,,0.01,VWS V14.01,2013-07-25 22:25:00,
2013-07-25 17:30:00,64.8,50.9,29.90,WNW,284,14.0,17.0,61,0.00,,,0.01,VWS V14.01,2013-07-25 22:30:00,
2013-07-25 17:35:00,64.2,50.3,29.90,WNW,282,9.0,28.0,61,0.00,,,0.01,VWS V14.01,2013-07-25 22:35:00,
2013-07-25 17:40:00,64.6,51.6,29.91,WNW,301,8.0,28.0,63,0.00,,,0.01,VWS V14.01,2013-07-25 22:40:00,
2013-07-25 17:45:00,64.2,51.2,29.90,WNW,294,13.0,17.0,63,0.00,,,0.01,VWS V14.01,2013-07-25 22:45:00,
2013-07-25 17:50:00,64.7,51.3,29.90,WNW,288,10.0,18.0,62,0.00,,,0.01,VWS V14.01,2013-07-25 22:50:00,
2013-07-25 17:55:00,65.2,52.2,29.90,WNW,298,11.0,18.0,63,0.00,,,0.01,VWS V14.01,2013-07-25 22:55:00,
2013-07-25 18:00:00,64.7,50.4,29.91,WNW,297,14.0,22.0,60,0.00,,,0.01,VWS V14.01,2013-07-25 23:00:00,
2013-07-25 18:05:00,63.8,50.4,29.90,NW,309,17.0,22.0,62,0.00,,,0.01,VWS V14.01,2013-07-25 23:05:00,
2013-07-25 18:10:00,65.0,50.7,29.90,WNW,299,21.0,25.0,60,0.00,,,0.01,VWS V14.01,2013-07-25 23:10:00,
2013-07-25 18:15:00,65.3,50.9,29.90,West,263,13.0,15.0,60,0.00,,,0.01,VWS V14.01,2013-07-25 23:15:00,
2013-07-25 18:20:00,65.2,51.7,29.91,WNW,289,17.0,22.0,62,0.00,,,0.01,VWS V14.01,2013-07-25 23:20:00,
2013-07-25 18:25:00,64.9,51.9,29.91,WNW,300,5.0,22.0,63,0.00,,,0.01,VWS V14.01,2013-07-25 23:25:00,
2013-07-25 18:30:00,64.7,51.7,29.91,WNW,292,11.0,15.0,63,0.00,,,0.01,VWS V14.01,2013-07-25 23:30:00,
2013-07-25 18:35:00,64.2,51.2,29.91,WNW,296,15.0,21.0,63,0.00,,,0.01,VWS V14.01,2013-07-25 23:35:00,
2013-07-25 18:40:00,64.3,52.2,29.91,NNW,328,11.0,21.0,65,0.00,,,0.01,VWS V14.01,2013-07-25 23:40:00,
2013-07-25 18:45:00,64.7,52.5,29.91,West,276,18.0,18.0,65,0.00,,,0.01,VWS V14.01,2013-07-25 23:45:00,
2013-07-25 18:50:00,64.8,51.8,29.91,NNE,25,5.0,20.0,63,0.00,,,0.01,VWS V14.01,2013-07-25 23:50:00,
2013-07-25 18:55:00,64.6,51.6,29.91,NW,305,19.0,20.0,63,0.00,,,0.01,VWS V14.01,2013-07-25 23:55:00,
2013-07-25 19:00:00,64.5,51.5,29.91,NW,317,11.0,14.0,63,0.00,,,0.01,VWS V14.01,2013-07-26 00:00:00,
2013-07-25 19:05:00,64.2,51.2,29.91,WNW,290,9.0,20.0,63,0.00,,,0.01,VWS V14.01,2013-07-26 00:05:00,
2013-07-25 19:10:00,64.2,52.1,29.91,West,277,8.0,20.0,65,0.00,,,0.01,VWS V14.01,2013-07-26 00:10:00,
2013-07-25 19:15:00,64.8,51.8,29.91,NW,307,7.0,9.0,63,0.00,,,0.01,VWS V14.01,2013-07-26 00:15:00,
2013-07-25 19:20:00,64.9,51.9,29.91,WNW,301,9.0,18.0,63,0.00,,,0.01,VWS V14.01,2013-07-26 00:20:00,
2013-07-25 19:25:00,64.8,52.2,29.91,NW,321,6.0,19.0,64,0.00,,,0.01,VWS V14.01,2013-07-26 00:25:00,
2013-07-25 19:30:00,64.6,52.0,29.91,WNW,297,13.0,13.0,64,0.00,,,0.01,VWS V14.01,2013-07-26 00:30:00,
2013-07-25 19:35:00,64.4,52.3,29.91,NW,309,7.0,17.0,65,0.00,,,0.01,VWS V14.01,2013-07-26 00:35:00,
2013-07-25 19:40:00,64.2,51.7,29.91,WNW,291,17.0,22.0,64,0.00,,,0.01,VWS V14.01,2013-07-26 00:40:00,
2013-07-25 19:45:00,63.8,52.5,29.91,WNW,289,7.0,9.0,67,0.00,,,0.01,VWS V14.01,2013-07-26 00:45:00,
2013-07-25 19:50:00,64.0,52.7,29.91,NNW,345,4.0,14.0,67,0.00,,,0.01,VWS V14.01,2013-07-26 00:50:00,
2013-07-25 19:55:00,63.9,51.8,29.92,NW,313,9.0,21.0,65,0.00,,,0.01,VWS V14.01,2013-07-26 00:55:00,
2013-07-25 20:00:00,63.2,52.0,29.92,WNW,299,10.0,10.0,67,0.00,,,0.01,VWS V14.01,2013-07-26 01:00:00,
2013-07-25 20:05:00,62.8,52.0,29.92,NW,323,10.0,22.0,68,0.00,,,0.01,VWS V14.01,2013-07-26 01:05:00,
2013-07-25 20:10:00,62.0,53.2,29.92,WNW,296,6.0,22.0,73,0.00,,,0.01,VWS V14.01,2013-07-26 01:10:00,
2013-07-25 20:15:00,60.2,53.6,29.93,NW,320,10.0,10.0,79,0.00,,,0.01,VWS V14.01,2013-07-26 01:15:00,
2013-07-25 20:20:00,59.0,53.4,29.93,NW,316,11.0,17.0,82,0.00,,,0.01,VWS V14.01,2013-07-26 01:20:00,
2013-07-25 20:25:00,59.1,53.8,29.93,WNW,302,8.0,17.0,83,0.00,,,0.01,VWS V14.01,2013-07-26 01:25:00,
2013-07-25 20:30:00,59.1,54.2,29.93,NW,308,6.0,9.0,84,0.00,,,0.01,VWS V14.01,2013-07-26 01:30:00,
2013-07-25 20:35:00,59.2,54.3,29.93,WNW,299,2.0,16.0,84,0.00,,,0.01,VWS V14.01,2013-07-26 01:35:00,
2013-07-25 20:40:00,59.3,54.4,29.93,WNW,289,17.0,17.0,84,0.00,,,0.01,VWS V14.01,2013-07-26 01:40:00,
2013-07-25 20:45:00,59.4,54.1,29.93,WNW,294,6.0,6.0,83,0.00,,,0.01,VWS V14.01,2013-07-26 01:45:00,
2013-07-25 20:50:00,59.5,54.2,29.93,NNE,18,4.0,19.0,83,0.00,,,0.01,VWS V14.01,2013-07-26 01:50:00,
2013-07-25 20:55:00,59.4,53.8,29.94,WNW,300,6.0,19.0,82,0.00,,,0.01,VWS V14.01,2013-07-26 01:55:00,
2013-07-25 21:00:00,59.0,53.8,29.94,North,350,5.0,5.0,83,0.00,,,0.01,VWS V14.01,2013-07-26 02:00:00,
2013-07-25 21:05:00,58.7,53.8,29.93,WNW,296,3.0,9.0,84,0.00,,,0.01,VWS V14.01,2013-07-26 02:05:00,
2013-07-25 21:10:00,58.6,54.0,29.94,NE,41,4.0,10.0,85,0.00,,,0.01,VWS V14.01,2013-07-26 02:10:00,
2013-07-25 21:15:00,58.4,53.8,29.94,NW,314,1.0,1.0,85,0.00,,,0.01,VWS V14.01,2013-07-26 02:15:00,
2013-07-25 21:20:00,58.1,53.5,29.94,North,2,3.0,7.0,85,0.00,,,0.01,VWS V14.01,2013-07-26 02:20:00,
2013-07-25 21:25:00,57.8,53.2,29.95,NNE,15,5.0,10.0,85,0.00,,,0.01,VWS V14.01,2013-07-26 02:25:00,
2013-07-25 21:30:00,57.5,53.3,29.95,NNW,327,8.0,8.0,86,0.00,,,0.01,VWS V14.01,2013-07-26 02:30:00,
2013-07-25 21:35:00,57.4,53.5,29.95,NW,320,1.0,8.0,87,0.00,,,0.01,VWS V14.01,2013-07-26 02:35:00,
2013-07-25 21:40:00,57.3,53.4,29.95,NW,324,3.0,8.0,87,0.00,,,0.01,VWS V14.01,2013-07-26 02:40:00,
2013-07-25 21:45:00,57.3,53.4,29.95,NE,34,2.0,9.0,87,0.00,,,0.01,VWS V14.01,2013-07-26 02:45:00,
2013-07-25 21:50:00,57.2,53.6,29.96,NW,316,3.0,8.0,88,0.00,,,0.01,VWS V14.01,2013-07-26 02:50:00,
2013-07-25 21:55:00,57.2,53.6,29.96,West,275,4.0,11.0,88,0.00,,,0.01,VWS V14.01,2013-07-26 02:55:00,
2013-07-25 22:00:00,57.1,53.5,29.96,WNW,291,6.0,11.0,88,0.00,,,0.01,VWS V14.01,2013-07-26 03:00:00,
2013-07-25 22:05:00,57.0,53.4,29.96,NNW,329,5.0,11.0,88,0.00,,,0.01,VWS V14.01,2013-07-26 03:05:00,
2013-07-25 22:10:00,57.1,53.5,29.97,WNW,292,7.0,11.0,88,0.00,,,0.01,VWS V14.01,2013-07-26 03:10:00,
2013-07-25 22:15:00,57.1,53.5,29.97,NNW,345,2.0,11.0,88,0.00,,,0.01,VWS V14.01,2013-07-26 03:15:00,
2013-07-25 22:20:00,57.1,53.8,29.97,WNW,297,3.0,9.0,89,0.00,,,0.01,VWS V14.01,2013-07-26 03:20:00,
2013-07-25 22:25:00,57.1,53.8,29.98,WNW,297,1.0,9.0,89,0.00,,,0.01,VWS V14.01,2013-07-26 03:25:00,
2013-07-25 22:30:00,57.2,53.9,29.98,North,354,3.0,9.0,89,0.00,,,0.01,VWS V14.01,2013-07-26 03:30:00,
2013-07-25 22:35:00,57.2,53.9,29.98,North,4,3.0,7.0,89,0.00,,,0.01,VWS V14.01,2013-07-26 03:35:00,
2013-07-25 22:40:00,57.2,53.6,29.98,North,358,3.0,14.0,88,0.00,,,0.01,VWS V14.01,2013-07-26 03:40:00,
2013-07-25 22:45:00,57.1,53.2,29.99,North,10,7.0,14.0,87,0.00,,,0.01,VWS V14.01,2013-07-26 03:45:00,
2013-07-25 22:50:00,57.0,53.4,29.99,North,352,2.0,10.0,88,0.00,,,0.01,VWS V14.01,2013-07-26 03:50:00,
2013-07-25 22:55:00,56.6,53.3,30.00,North,351,2.0,11.0,89,0.00,,,0.01,VWS V14.01,2013-07-26 03:55:00,
2013-07-25 23:00:00,56.3,53.3,30.00,NNW,327,1.0,11.0,90,0.01,,,0.02,VWS V14.01,2013-07-26 04:00:00,
2013-07-25 23:01:00,56.3,53.3,30.00,NW,321,5.0,6.0,90,0.01,,,0.02,VWS V14.01,2013-07-26 04:01:00,
2013-07-25 23:06:00,56.0,53.3,30.00,NNE,22,5.0,9.0,91,0.02,,,0.03,VWS V14.01,2013-07-26 04:06:00,
2013-07-25 23:11:00,55.7,53.0,30.00,NNW,327,6.0,11.0,91,0.04,,,0.05,VWS V14.01,2013-07-26 04:11:00,
2013-07-25 23:15:00,57.1,53.5,29.97,NNW,345,2.0,11.0,88,0.00,,,0.01,VWS V14.01,2013-07-26 04:15:00,
2013-07-25 23:16:00,55.4,53.0,30.00,NW,313,3.0,7.0,92,0.04,,,0.05,VWS V14.01,2013-07-26 04:16:00,
2013-07-25 23:21:00,55.2,52.8,30.00,NW,316,1.0,7.0,92,0.04,,,0.05,VWS V14.01,2013-07-26 04:21:00,
2013-07-25 23:26:00,55.0,52.6,30.00,NNW,331,0.0,10.0,92,0.04,,,0.05,VWS V14.01,2013-07-26 04:26:00,
2013-07-25 23:30:00,57.2,53.9,29.98,North,354,3.0,9.0,89,0.00,,,0.01,VWS V14.01,2013-07-26 04:30:00,
2013-07-25 23:31:00,54.9,52.5,30.00,North,357,2.0,3.0,92,0.04,,,0.05,VWS V14.01,2013-07-26 04:31:00,
2013-07-25 23:36:00,54.8,52.7,30.00,NNW,346,1.0,5.0,93,0.04,,,0.05,VWS V14.01,2013-07-26 04:36:00,
2013-07-25 23:41:00,54.7,52.6,30.00,NW,317,2.0,5.0,93,0.04,,,0.05,VWS V14.01,2013-07-26 04:41:00,
2013-07-25 23:45:00,57.1,53.2,29.99,North,10,7.0,14.0,87,0.00,,,0.01,VWS V14.01,2013-07-26 04:45:00,
2013-07-25 23:46:00,54.8,52.7,30.01,NNE,28,5.0,5.0,93,0.04,,,0.05,VWS V14.01,2013-07-26 04:46:00,
2013-07-25 23:51:00,54.8,52.7,30.01,North,358,2.0,8.0,93,0.04,,,0.05,VWS V14.01,2013-07-26 04:51:00,
2013-07-25 23:56:00,54.9,53.1,30.01,NNW,343,5.0,8.0,94,0.04,,,0.05,VWS V14.01,2013-07-26 04:56:00,